sensor_id;sensor_type;location;lat;lon;timestamp;pressure;altitude;pressure_sealevel;temperature;humidity
65276;BME280;51875;49.994;14.052;2023-03-18T00:00:28;98121.31;;;4.21;67.58
65276;BME280;51875;49.994;14.052;2023-03-18T00:02:03;98120.47;;;4.16;67.73
65276;BME280;51875;49.994;14.052;2023-03-18T00:03:19;98120.63;;;3.92;70.53
65276;BME280;51875;49.994;14.052;2023-03-18T00:04:34;98117.91;;;4.11;68.59
65276;BME280;51875;49.994;14.052;2023-03-18T00:05:50;98129.28;;;3.93;70.58
65276;BME280;51875;49.994;14.052;2023-03-18T00:07:06;98131.88;;;3.90;70.42
65276;BME280;51875;49.994;14.052;2023-03-18T00:08:22;98129.22;;;4.01;69.21
65276;BME280;51875;49.994;14.052;2023-03-18T00:09:38;98131.81;;;3.98;69.19
65276;BME280;51875;49.994;14.052;2023-03-18T00:10:54;98137.94;;;3.86;69.05
65276;BME280;51875;49.994;14.052;2023-03-18T00:12:11;98137.16;;;3.77;69.38
65276;BME280;51875;49.994;14.052;2023-03-18T00:13:26;98135.50;;;3.58;70.47
65276;BME280;51875;49.994;14.052;2023-03-18T00:14:42;98140.63;;;3.68;69.94
65276;BME280;51875;49.994;14.052;2023-03-18T00:15:59;98141.50;;;3.63;69.88
65276;BME280;51875;49.994;14.052;2023-03-18T00:17:15;98135.44;;;3.68;69.28
65276;BME280;51875;49.994;14.052;2023-03-18T00:18:31;98141.50;;;3.67;69.08
65276;BME280;51875;49.994;14.052;2023-03-18T00:19:47;98142.47;;;3.48;70.21
65276;BME280;51875;49.994;14.052;2023-03-18T00:21:03;98140.75;;;3.47;69.84
65276;BME280;51875;49.994;14.052;2023-03-18T00:22:19;98149.38;;;3.44;69.16
65276;BME280;51875;49.994;14.052;2023-03-18T00:23:35;98147.75;;;3.17;69.94
65276;BME280;51875;49.994;14.052;2023-03-18T00:24:51;98143.50;;;2.83;72.03
65276;BME280;51875;49.994;14.052;2023-03-18T00:26:07;98146.06;;;2.94;72.41
65276;BME280;51875;49.994;14.052;2023-03-18T00:27:23;98134.91;;;2.76;73.12
65276;BME280;51875;49.994;14.052;2023-03-18T00:28:39;98141.78;;;2.94;72.07
65276;BME280;51875;49.994;14.052;2023-03-18T00:29:55;98140.94;;;2.61;73.88
65276;BME280;51875;49.994;14.052;2023-03-18T00:31:12;98139.19;;;2.76;73.18
65276;BME280;51875;49.994;14.052;2023-03-18T00:32:28;98143.47;;;2.94;72.53
65276;BME280;51875;49.994;14.052;2023-03-18T00:33:43;98134.00;;;2.91;73.06
65276;BME280;51875;49.994;14.052;2023-03-18T00:35:02;98139.19;;;2.83;75.32
65276;BME280;51875;49.994;14.052;2023-03-18T00:36:18;98136.63;;;2.87;75.50
65276;BME280;51875;49.994;14.052;2023-03-18T00:37:39;98140.91;;;2.95;73.62
65276;BME280;51875;49.994;14.052;2023-03-18T00:38:57;98143.47;;;2.89;74.70
65276;BME280;51875;49.994;14.052;2023-03-18T00:40:13;98134.84;;;2.95;73.66
65276;BME280;51875;49.994;14.052;2023-03-18T00:41:34;98134.91;;;2.50;75.00
65276;BME280;51875;49.994;14.052;2023-03-18T00:42:52;98136.66;;;2.59;74.51
65276;BME280;51875;49.994;14.052;2023-03-18T00:44:15;98128.88;;;2.40;74.99
65276;BME280;51875;49.994;14.052;2023-03-18T00:45:33;98128.03;;;2.55;73.71
65276;BME280;51875;49.994;14.052;2023-03-18T00:46:51;98125.44;;;2.43;74.25
65276;BME280;51875;49.994;14.052;2023-03-18T00:48:07;98138.38;;;2.47;73.70
65276;BME280;51875;49.994;14.052;2023-03-18T00:49:23;98135.78;;;2.53;72.91
65276;BME280;51875;49.994;14.052;2023-03-18T00:50:39;98130.59;;;2.29;72.45
65276;BME280;51875;49.994;14.052;2023-03-18T00:51:55;98134.03;;;2.01;73.62
65276;BME280;51875;49.994;14.052;2023-03-18T00:53:12;98134.91;;;2.05;73.75
65276;BME280;51875;49.994;14.052;2023-03-18T00:54:28;98130.59;;;2.10;73.01
65276;BME280;51875;49.994;14.052;2023-03-18T00:55:44;98139.22;;;2.32;71.75
65276;BME280;51875;49.994;14.052;2023-03-18T00:57:00;98131.47;;;2.37;71.51
65276;BME280;51875;49.994;14.052;2023-03-18T00:58:16;98133.19;;;2.30;71.96
65276;BME280;51875;49.994;14.052;2023-03-18T00:59:32;98130.59;;;1.99;74.58
65276;BME280;51875;49.994;14.052;2023-03-18T01:00:47;98124.59;;;2.25;72.82
65276;BME280;51875;49.994;14.052;2023-03-18T01:02:03;98126.25;;;1.79;76.68
65276;BME280;51875;49.994;14.052;2023-03-18T01:03:19;98127.16;;;2.09;74.53
65276;BME280;51875;49.994;14.052;2023-03-18T01:04:35;98129.75;;;2.13;74.09
65276;BME280;51875;49.994;14.052;2023-03-18T01:05:51;98129.75;;;2.19;73.98
65276;BME280;51875;49.994;14.052;2023-03-18T01:07:08;98122.88;;;2.19;73.40
65276;BME280;51875;49.994;14.052;2023-03-18T01:08:25;98127.09;;;1.72;75.73
65276;BME280;51875;49.994;14.052;2023-03-18T01:09:41;98129.63;;;1.55;77.63
65276;BME280;51875;49.994;14.052;2023-03-18T01:10:58;98130.53;;;1.66;77.05
65276;BME280;51875;49.994;14.052;2023-03-18T01:12:14;98127.09;;;1.74;76.44
65276;BME280;51875;49.994;14.052;2023-03-18T01:13:29;98128.84;;;1.82;75.97
65276;BME280;51875;49.994;14.052;2023-03-18T01:14:45;98118.53;;;1.86;76.19
65276;BME280;51875;49.994;14.052;2023-03-18T01:16:01;98121.16;;;2.34;72.64
65276;BME280;51875;49.994;14.052;2023-03-18T01:17:17;98112.53;;;2.29;72.26
65276;BME280;51875;49.994;14.052;2023-03-18T01:18:33;98115.09;;;2.16;71.86
65276;BME280;51875;49.994;14.052;2023-03-18T01:19:49;98119.41;;;2.30;71.71
65276;BME280;51875;49.994;14.052;2023-03-18T01:21:05;98118.53;;;2.43;70.61
65276;BME280;51875;49.994;14.052;2023-03-18T01:22:20;98119.41;;;2.58;70.15
65276;BME280;51875;49.994;14.052;2023-03-18T01:23:37;98117.69;;;2.53;69.65
65276;BME280;51875;49.994;14.052;2023-03-18T01:24:52;98121.13;;;2.35;70.75
65276;BME280;51875;49.994;14.052;2023-03-18T01:26:08;98116.84;;;2.28;71.20
65276;BME280;51875;49.994;14.052;2023-03-18T01:27:25;98120.28;;;2.52;71.22
65276;BME280;51875;49.994;14.052;2023-03-18T01:28:41;98113.38;;;2.40;72.71
65276;BME280;51875;49.994;14.052;2023-03-18T01:29:57;98121.97;;;1.85;77.57
65276;BME280;51875;49.994;14.052;2023-03-18T01:31:14;98127.97;;;1.79;80.55
65276;BME280;51875;49.994;14.052;2023-03-18T01:32:29;98126.28;;;2.01;79.01
65276;BME280;51875;49.994;14.052;2023-03-18T01:33:45;98134.06;;;2.09;82.92
65276;BME280;51875;49.994;14.052;2023-03-18T01:35:02;98128.00;;;2.02;83.04
65276;BME280;51875;49.994;14.052;2023-03-18T01:36:18;98138.38;;;2.33;81.98
65276;BME280;51875;49.994;14.052;2023-03-18T01:37:33;98128.03;;;2.24;80.67
65276;BME280;51875;49.994;14.052;2023-03-18T01:38:49;98131.47;;;2.29;80.27
65276;BME280;51875;49.994;14.052;2023-03-18T01:40:06;98132.34;;;2.34;79.51
65276;BME280;51875;49.994;14.052;2023-03-18T01:41:24;98126.31;;;2.09;79.44
65276;BME280;51875;49.994;14.052;2023-03-18T01:42:41;98126.31;;;2.21;78.92
65276;BME280;51875;49.994;14.052;2023-03-18T01:43:57;98125.44;;;2.18;79.70
65276;BME280;51875;49.994;14.052;2023-03-18T01:45:18;98130.63;;;2.19;79.40
65276;BME280;51875;49.994;14.052;2023-03-18T01:46:45;98128.00;;;1.94;79.21
65276;BME280;51875;49.994;14.052;2023-03-18T01:48:01;98122.69;;;1.41;83.55
65276;BME280;51875;49.994;14.052;2023-03-18T01:49:24;98126.25;;;1.81;81.88
65276;BME280;51875;49.994;14.052;2023-03-18T01:50:42;98125.41;;;1.83;81.81
65276;BME280;51875;49.994;14.052;2023-03-18T01:52:03;98125.38;;;1.69;82.03
65276;BME280;51875;49.994;14.052;2023-03-18T01:53:21;98125.19;;;1.15;86.79
65276;BME280;51875;49.994;14.052;2023-03-18T01:54:41;98120.84;;;1.08;88.84
65276;BME280;51875;49.994;14.052;2023-03-18T01:55:58;98115.75;;;1.20;87.60
65276;BME280;51875;49.994;14.052;2023-03-18T01:57:15;98120.03;;;1.18;87.20
65276;BME280;51875;49.994;14.052;2023-03-18T01:58:39;98121.72;;;1.08;87.83
65276;BME280;51875;49.994;14.052;2023-03-18T01:59:56;98117.41;;;1.10;88.65
65276;BME280;51875;49.994;14.052;2023-03-18T02:02:42;98114.06;;;1.30;84.87
65276;BME280;51875;49.994;14.052;2023-03-18T02:04:00;98114.13;;;1.52;82.80
65276;BME280;51875;49.994;14.052;2023-03-18T02:05:21;98117.66;;;1.83;80.71
65276;BME280;51875;49.994;14.052;2023-03-18T02:06:37;98112.50;;;2.01;78.90
65276;BME280;51875;49.994;14.052;2023-03-18T02:07:53;98122.75;;;1.62;80.04
65276;BME280;51875;49.994;14.052;2023-03-18T02:09:10;98129.47;;;1.16;85.30
65276;BME280;51875;49.994;14.052;2023-03-18T02:10:29;98133.09;;;1.62;83.66
65276;BME280;51875;49.994;14.052;2023-03-18T02:11:46;98126.25;;;1.78;83.17
65276;BME280;51875;49.994;14.052;2023-03-18T02:13:07;98121.09;;;1.84;82.73
65276;BME280;51875;49.994;14.052;2023-03-18T02:14:24;98124.50;;;1.66;84.91
65276;BME280;51875;49.994;14.052;2023-03-18T02:15:48;98121.09;;;1.70;84.58
65276;BME280;51875;49.994;14.052;2023-03-18T02:17:12;98124.44;;;1.44;85.04
65276;BME280;51875;49.994;14.052;2023-03-18T02:18:36;98129.56;;;1.38;85.28
65276;BME280;51875;49.994;14.052;2023-03-18T02:20:25;98127.94;;;1.66;82.90
65276;BME280;51875;49.994;14.052;2023-03-18T02:22:22;98131.38;;;1.64;82.45
65276;BME280;51875;49.994;14.052;2023-03-18T02:25:12;98138.31;;;1.76;81.59
65276;BME280;51875;49.994;14.052;2023-03-18T02:28:13;98133.06;;;1.51;81.95
65276;BME280;51875;49.994;14.052;2023-03-18T02:29:33;98138.22;;;1.54;81.72
65276;BME280;51875;49.994;14.052;2023-03-18T02:30:53;98131.28;;;1.33;83.71
65276;BME280;51875;49.994;14.052;2023-03-18T02:32:12;98135.50;;;1.18;83.74
65276;BME280;51875;49.994;14.052;2023-03-18T02:33:34;98134.38;;;0.74;86.38
65276;BME280;51875;49.994;14.052;2023-03-18T02:34:51;98135.16;;;0.61;88.45
65276;BME280;51875;49.994;14.052;2023-03-18T02:36:12;98132.69;;;0.78;88.10
65276;BME280;51875;49.994;14.052;2023-03-18T02:37:29;98137.81;;;0.73;88.14
65276;BME280;51875;49.994;14.052;2023-03-18T02:38:45;98140.53;;;0.92;87.62
65276;BME280;51875;49.994;14.052;2023-03-18T02:40:31;98144.19;;;1.37;83.49
65276;BME280;51875;49.994;14.052;2023-03-18T02:41:47;98143.28;;;1.27;83.06
65276;BME280;51875;49.994;14.052;2023-03-18T02:44:39;98136.38;;;1.22;86.45
65276;BME280;51875;49.994;14.052;2023-03-18T02:47:19;98141.66;;;1.59;84.48
65276;BME280;51875;49.994;14.052;2023-03-18T02:48:38;98134.84;;;1.69;84.76
65276;BME280;51875;49.994;14.052;2023-03-18T02:49:55;98129.59;;;1.50;85.48
65276;BME280;51875;49.994;14.052;2023-03-18T02:51:13;98130.50;;;1.57;85.98
65276;BME280;51875;49.994;14.052;2023-03-18T02:52:30;98124.38;;;1.30;84.70
65276;BME280;51875;49.994;14.052;2023-03-18T02:53:46;98135.47;;;1.10;85.50
65276;BME280;51875;49.994;14.052;2023-03-18T02:55:02;98142.41;;;1.25;84.76
65276;BME280;51875;49.994;14.052;2023-03-18T02:56:18;98144.16;;;1.31;83.19
65276;BME280;51875;49.994;14.052;2023-03-18T02:57:33;98145.81;;;1.21;81.48
65276;BME280;51875;49.994;14.052;2023-03-18T02:58:49;98149.25;;;1.14;83.17
65276;BME280;51875;49.994;14.052;2023-03-18T03:00:05;98152.69;;;1.16;84.99
65276;BME280;51875;49.994;14.052;2023-03-18T03:01:22;98148.47;;;1.31;84.60
65276;BME280;51875;49.994;14.052;2023-03-18T03:02:38;98149.38;;;1.42;85.04
65276;BME280;51875;49.994;14.052;2023-03-18T03:03:54;98157.03;;;1.31;88.32
65276;BME280;51875;49.994;14.052;2023-03-18T03:05:11;98160.56;;;1.44;86.21
65276;BME280;51875;49.994;14.052;2023-03-18T03:06:26;98157.09;;;1.37;86.08
65276;BME280;51875;49.994;14.052;2023-03-18T03:07:42;98164.84;;;1.44;85.28
65276;BME280;51875;49.994;14.052;2023-03-18T03:08:58;98164.72;;;1.14;87.26
65276;BME280;51875;49.994;14.052;2023-03-18T03:10:15;98174.28;;;1.41;85.54
65276;BME280;51875;49.994;14.052;2023-03-18T03:11:30;98172.50;;;1.31;85.52
65276;BME280;51875;49.994;14.052;2023-03-18T03:12:46;98174.28;;;1.41;84.26
65276;BME280;51875;49.994;14.052;2023-03-18T03:14:02;98164.84;;;1.40;83.70
65276;BME280;51875;49.994;14.052;2023-03-18T03:15:18;98163.91;;;1.26;86.11
65276;BME280;51875;49.994;14.052;2023-03-18T03:16:34;98171.59;;;1.12;87.52
65276;BME280;51875;49.994;14.052;2023-03-18T03:17:50;98169.81;;;1.05;87.31
65276;BME280;51875;49.994;14.052;2023-03-18T03:19:06;98172.84;;;0.45;93.24
65276;BME280;51875;49.994;14.052;2023-03-18T03:20:22;98178.22;;;0.76;92.31
65276;BME280;51875;49.994;14.052;2023-03-18T03:21:37;98168.94;;;1.03;88.47
65276;BME280;51875;49.994;14.052;2023-03-18T03:22:53;98171.28;;;0.68;92.20
65276;BME280;51875;49.994;14.052;2023-03-18T03:24:09;98177.16;;;0.49;94.17
65276;BME280;51875;49.994;14.052;2023-03-18T03:25:25;98175.59;;;0.71;94.31
65276;BME280;51875;49.994;14.052;2023-03-18T03:26:41;98174.75;;;0.69;92.59
65276;BME280;51875;49.994;14.052;2023-03-18T03:27:59;98175.69;;;0.80;93.06
65276;BME280;51875;49.994;14.052;2023-03-18T03:29:15;98178.38;;;1.02;90.06
65276;BME280;51875;49.994;14.052;2023-03-18T03:30:31;98177.69;;;1.26;87.19
65276;BME280;51875;49.994;14.052;2023-03-18T03:31:47;98178.97;;;0.59;91.65
65276;BME280;51875;49.994;14.052;2023-03-18T03:33:03;98178.34;;;0.97;88.30
65276;BME280;51875;49.994;14.052;2023-03-18T03:34:19;98191.31;;;1.08;87.08
65276;BME280;51875;49.994;14.052;2023-03-18T03:35:36;98186.19;;;1.11;86.81
65276;BME280;51875;49.994;14.052;2023-03-18T03:36:52;98186.94;;;0.96;90.78
65276;BME280;51875;49.994;14.052;2023-03-18T03:38:08;98182.78;;;1.20;88.47
65276;BME280;51875;49.994;14.052;2023-03-18T03:39:24;98188.84;;;1.24;87.92
65276;BME280;51875;49.994;14.052;2023-03-18T03:40:39;98191.41;;;1.24;89.42
65276;BME280;51875;49.994;14.052;2023-03-18T03:41:55;98188.81;;;1.21;88.49
65276;BME280;51875;49.994;14.052;2023-03-18T03:43:12;98189.63;;;1.17;89.12
65276;BME280;51875;49.994;14.052;2023-03-18T03:44:28;98188.66;;;0.93;90.25
65276;BME280;51875;49.994;14.052;2023-03-18T03:45:44;98186.16;;;1.05;88.86
65276;BME280;51875;49.994;14.052;2023-03-18T03:47:00;98187.84;;;0.98;89.90
65276;BME280;51875;49.994;14.052;2023-03-18T03:48:16;98195.47;;;0.86;91.74
65276;BME280;51875;49.994;14.052;2023-03-18T03:49:32;98193.94;;;1.13;89.74
65276;BME280;51875;49.994;14.052;2023-03-18T03:50:49;98195.59;;;1.02;89.90
65276;BME280;51875;49.994;14.052;2023-03-18T03:52:05;98194.72;;;1.03;89.05
65276;BME280;51875;49.994;14.052;2023-03-18T03:53:21;98191.13;;;0.79;90.26
65276;BME280;51875;49.994;14.052;2023-03-18T03:54:36;98200.66;;;0.89;89.23
65276;BME280;51875;49.994;14.052;2023-03-18T03:55:52;98198.97;;;0.96;88.31
65276;BME280;51875;49.994;14.052;2023-03-18T03:57:09;98200.75;;;1.02;87.79
65276;BME280;51875;49.994;14.052;2023-03-18T03:58:25;98195.50;;;0.92;87.25
65276;BME280;51875;49.994;14.052;2023-03-18T03:59:41;98196.31;;;0.83;88.25
65276;BME280;51875;49.994;14.052;2023-03-18T04:00:57;98205.75;;;0.83;88.93
65276;BME280;51875;49.994;14.052;2023-03-18T04:02:12;98202.91;;;0.46;93.48
65276;BME280;51875;49.994;14.052;2023-03-18T04:03:28;98192.69;;;0.60;92.62
65276;BME280;51875;49.994;14.052;2023-03-18T04:04:44;98200.72;;;0.98;88.61
65276;BME280;51875;49.994;14.052;2023-03-18T04:06:00;98199.84;;;1.01;89.09
65276;BME280;51875;49.994;14.052;2023-03-18T04:07:16;98200.72;;;1.00;88.41
65276;BME280;51875;49.994;14.052;2023-03-18T04:08:31;98198.13;;;0.97;88.45
65276;BME280;51875;49.994;14.052;2023-03-18T04:09:47;98202.47;;;1.03;89.02
65276;BME280;51875;49.994;14.052;2023-03-18T04:11:03;98201.63;;;1.07;88.02
65276;BME280;51875;49.994;14.052;2023-03-18T04:12:20;98203.38;;;1.16;87.85
65276;BME280;51875;49.994;14.052;2023-03-18T04:13:35;98206.81;;;1.11;88.60
65276;BME280;51875;49.994;14.052;2023-03-18T04:14:51;98206.78;;;1.05;89.14
65276;BME280;51875;49.994;14.052;2023-03-18T04:16:06;98216.88;;;0.79;91.27
65276;BME280;51875;49.994;14.052;2023-03-18T04:17:22;98211.91;;;1.01;89.01
65276;BME280;51875;49.994;14.052;2023-03-18T04:18:38;98211.84;;;0.97;89.45
65276;BME280;51875;49.994;14.052;2023-03-18T04:19:53;98207.63;;;1.06;89.82
65276;BME280;51875;49.994;14.052;2023-03-18T04:21:09;98205.91;;;1.08;88.06
65276;BME280;51875;49.994;14.052;2023-03-18T04:22:26;98215.13;;;0.76;91.98
65276;BME280;51875;49.994;14.052;2023-03-18T04:23:42;98216.19;;;0.98;90.40
65276;BME280;51875;49.994;14.052;2023-03-18T04:24:57;98211.88;;;0.96;91.88
65276;BME280;51875;49.994;14.052;2023-03-18T04:26:13;98211.06;;;1.02;91.04
65276;BME280;51875;49.994;14.052;2023-03-18T04:27:29;98208.50;;;1.06;90.26
65276;BME280;51875;49.994;14.052;2023-03-18T04:28:44;98211.91;;;1.02;89.32
65276;BME280;51875;49.994;14.052;2023-03-18T04:30:00;98215.34;;;1.04;90.45
65276;BME280;51875;49.994;14.052;2023-03-18T04:31:16;98213.69;;;1.12;90.64
65276;BME280;51875;49.994;14.052;2023-03-18T04:32:32;98216.25;;;1.12;89.79
65276;BME280;51875;49.994;14.052;2023-03-18T04:33:48;98212.72;;;0.98;89.80
65276;BME280;51875;49.994;14.052;2023-03-18T04:35:04;98219.53;;;0.87;90.70
65276;BME280;51875;49.994;14.052;2023-03-18T04:36:19;98215.28;;;0.96;90.05
65276;BME280;51875;49.994;14.052;2023-03-18T04:37:35;98217.03;;;0.99;90.00
65276;BME280;51875;49.994;14.052;2023-03-18T04:38:51;98217.84;;;0.93;89.94
65276;BME280;51875;49.994;14.052;2023-03-18T04:40:07;98217.75;;;0.81;91.06
65276;BME280;51875;49.994;14.052;2023-03-18T04:41:23;98220.38;;;0.84;91.93
65276;BME280;51875;49.994;14.052;2023-03-18T04:42:39;98224.72;;;0.94;91.18
65276;BME280;51875;49.994;14.052;2023-03-18T04:43:54;98223.00;;;0.93;92.26
65276;BME280;51875;49.994;14.052;2023-03-18T04:45:10;98226.47;;;0.95;92.44
65276;BME280;51875;49.994;14.052;2023-03-18T04:46:27;98231.56;;;0.86;95.87
65276;BME280;51875;49.994;14.052;2023-03-18T04:47:44;98223.03;;;0.96;94.91
65276;BME280;51875;49.994;14.052;2023-03-18T04:49:00;98223.06;;;1.04;93.60
65276;BME280;51875;49.994;14.052;2023-03-18T04:50:16;98219.56;;;0.91;93.77
65276;BME280;51875;49.994;14.052;2023-03-18T04:51:32;98216.09;;;0.91;93.86
65276;BME280;51875;49.994;14.052;2023-03-18T04:52:47;98222.16;;;0.93;95.21
65276;BME280;51875;49.994;14.052;2023-03-18T04:54:03;98223.91;;;1.00;94.43
65276;BME280;51875;49.994;14.052;2023-03-18T04:55:19;98219.53;;;0.88;96.12
65276;BME280;51875;49.994;14.052;2023-03-18T04:56:35;98215.28;;;0.96;94.86
65276;BME280;51875;49.994;14.052;2023-03-18T04:57:51;98209.22;;;0.85;95.34
65276;BME280;51875;49.994;14.052;2023-03-18T04:59:06;98222.94;;;0.86;95.17
65276;BME280;51875;49.994;14.052;2023-03-18T05:00:23;98219.56;;;0.91;95.25
65276;BME280;51875;49.994;14.052;2023-03-18T05:01:39;98210.16;;;0.95;93.96
65276;BME280;51875;49.994;14.052;2023-03-18T05:02:54;98225.63;;;1.01;94.36
65276;BME280;51875;49.994;14.052;2023-03-18T05:04:10;98214.41;;;0.94;93.56
65276;BME280;51875;49.994;14.052;2023-03-18T05:05:26;98212.66;;;0.87;94.39
65276;BME280;51875;49.994;14.052;2023-03-18T05:06:42;98219.38;;;0.66;95.97
65276;BME280;51875;49.994;14.052;2023-03-18T05:07:57;98222.72;;;0.58;100.00
65276;BME280;51875;49.994;14.052;2023-03-18T05:09:13;98222.88;;;0.72;99.44
65276;BME280;51875;49.994;14.052;2023-03-18T05:10:29;98226.19;;;0.60;99.04
65276;BME280;51875;49.994;14.052;2023-03-18T05:11:45;98220.91;;;0.44;100.00
65276;BME280;51875;49.994;14.052;2023-03-18T05:13:00;98229.69;;;0.69;100.00
65276;BME280;51875;49.994;14.052;2023-03-18T05:14:16;98225.25;;;0.50;100.00
65276;BME280;51875;49.994;14.052;2023-03-18T05:15:32;98229.56;;;0.49;100.00
65276;BME280;51875;49.994;14.052;2023-03-18T05:16:48;98225.34;;;0.62;100.00
65276;BME280;51875;49.994;14.052;2023-03-18T05:18:03;98225.44;;;0.72;100.00
65276;BME280;51875;49.994;14.052;2023-03-18T05:19:19;98229.84;;;0.85;99.43
65276;BME280;51875;49.994;14.052;2023-03-18T05:20:35;98231.47;;;0.77;100.00
65276;BME280;51875;49.994;14.052;2023-03-18T05:21:51;98234.16;;;0.89;98.80
65276;BME280;51875;49.994;14.052;2023-03-18T05:23:06;98232.41;;;0.83;100.00
65276;BME280;51875;49.994;14.052;2023-03-18T05:24:22;98240.06;;;0.76;100.00
65276;BME280;51875;49.994;14.052;2023-03-18T05:25:38;98238.28;;;0.67;100.00
65276;BME280;51875;49.994;14.052;2023-03-18T05:26:54;98244.41;;;0.78;100.00
65276;BME280;51875;49.994;14.052;2023-03-18T05:28:09;98246.91;;;0.72;100.00
65276;BME280;51875;49.994;14.052;2023-03-18T05:29:25;98239.19;;;0.70;100.00
65276;BME280;51875;49.994;14.052;2023-03-18T05:30:41;98239.19;;;0.70;100.00
65276;BME280;51875;49.994;14.052;2023-03-18T05:31:57;98243.47;;;0.72;100.00
65276;BME280;51875;49.994;14.052;2023-03-18T05:33:13;98241.06;;;0.92;100.00
65276;BME280;51875;49.994;14.052;2023-03-18T05:34:29;98240.31;;;1.10;100.00
65276;BME280;51875;49.994;14.052;2023-03-18T05:35:45;98239.13;;;0.66;100.00
65276;BME280;51875;49.994;14.052;2023-03-18T05:37:02;98241.91;;;0.95;100.00
65276;BME280;51875;49.994;14.052;2023-03-18T05:38:18;98235.13;;;1.04;100.00
65276;BME280;51875;49.994;14.052;2023-03-18T05:39:34;98234.28;;;1.08;100.00
65276;BME280;51875;49.994;14.052;2023-03-18T05:40:50;98236.84;;;1.02;100.00
65276;BME280;51875;49.994;14.052;2023-03-18T05:42:06;98246.91;;;0.72;100.00
65276;BME280;51875;49.994;14.052;2023-03-18T05:43:22;98249.53;;;0.80;100.00
65276;BME280;51875;49.994;14.052;2023-03-18T05:44:38;98242.81;;;0.99;100.00
65276;BME280;51875;49.994;14.052;2023-03-18T05:45:54;98245.47;;;1.05;100.00
65276;BME280;51875;49.994;14.052;2023-03-18T05:47:10;98248.00;;;1.02;100.00
65276;BME280;51875;49.994;14.052;2023-03-18T05:48:27;98242.81;;;0.99;100.00
65276;BME280;51875;49.994;14.052;2023-03-18T05:49:46;98241.00;;;0.89;100.00
65276;BME280;51875;49.994;14.052;2023-03-18T05:51:03;98236.84;;;1.08;100.00
65276;BME280;51875;49.994;14.052;2023-03-18T05:52:20;98238.66;;;1.18;100.00
65276;BME280;51875;49.994;14.052;2023-03-18T05:53:35;98240.34;;;1.13;100.00
65276;BME280;51875;49.994;14.052;2023-03-18T05:54:55;98241.19;;;1.13;100.00
65276;BME280;51875;49.994;14.052;2023-03-18T05:56:14;98247.94;;;0.94;100.00
65276;BME280;51875;49.994;14.052;2023-03-18T05:57:30;98250.59;;;1.04;100.00
65276;BME280;51875;49.994;14.052;2023-03-18T05:58:46;98242.91;;;1.15;100.00
65276;BME280;51875;49.994;14.052;2023-03-18T06:00:02;98252.44;;;1.25;100.00
65276;BME280;51875;49.994;14.052;2023-03-18T06:01:18;98248.16;;;1.27;100.00
65276;BME280;51875;49.994;14.052;2023-03-18T06:02:34;98256.78;;;1.27;100.00
65276;BME280;51875;49.994;14.052;2023-03-18T06:03:50;98255.84;;;1.19;100.00
65276;BME280;51875;49.994;14.052;2023-03-18T06:05:07;98254.97;;;1.17;100.00
65276;BME280;51875;49.994;14.052;2023-03-18T06:06:25;98257.53;;;1.14;100.00
65276;BME280;51875;49.994;14.052;2023-03-18T06:07:41;98256.66;;;1.13;100.00
65276;BME280;51875;49.994;14.052;2023-03-18T06:08:57;98254.31;;;1.49;100.00
65276;BME280;51875;49.994;14.052;2023-03-18T06:10:15;98243.00;;;1.24;100.00
65276;BME280;51875;49.994;14.052;2023-03-18T06:11:31;98254.28;;;1.46;100.00
65276;BME280;51875;49.994;14.052;2023-03-18T06:12:48;98250.69;;;1.19;100.00
65276;BME280;51875;49.994;14.052;2023-03-18T06:14:05;98246.56;;;1.46;100.00
65276;BME280;51875;49.994;14.052;2023-03-18T06:15:22;98242.31;;;1.54;100.00
65276;BME280;51875;49.994;14.052;2023-03-18T06:16:37;98249.22;;;1.62;100.00
65276;BME280;51875;49.994;14.052;2023-03-18T06:17:53;98238.91;;;1.63;100.00
65276;BME280;51875;49.994;14.052;2023-03-18T06:19:09;98238.91;;;1.65;100.00
65276;BME280;51875;49.994;14.052;2023-03-18T06:20:26;98245.00;;;1.82;100.00
65276;BME280;51875;49.994;14.052;2023-03-18T06:21:41;98241.56;;;1.83;100.00
65276;BME280;51875;49.994;14.052;2023-03-18T06:22:57;98238.06;;;1.67;100.00
65276;BME280;51875;49.994;14.052;2023-03-18T06:24:14;98236.34;;;1.71;100.00
65276;BME280;51875;49.994;14.052;2023-03-18T06:25:30;98238.09;;;1.72;100.00
65276;BME280;51875;49.994;14.052;2023-03-18T06:26:46;98245.72;;;1.49;100.00
65276;BME280;51875;49.994;14.052;2023-03-18T06:28:01;98249.13;;;1.40;100.00
65276;BME280;51875;49.994;14.052;2023-03-18T06:29:17;98248.41;;;1.69;100.00
65276;BME280;51875;49.994;14.052;2023-03-18T06:30:33;98247.50;;;1.64;100.00
65276;BME280;51875;49.994;14.052;2023-03-18T06:31:48;98244.03;;;1.57;100.00
65276;BME280;51875;49.994;14.052;2023-03-18T06:33:04;98250.06;;;1.54;100.00
65276;BME280;51875;49.994;14.052;2023-03-18T06:34:20;98246.69;;;1.80;100.00
65276;BME280;51875;49.994;14.052;2023-03-18T06:35:35;98245.91;;;1.92;100.00
65276;BME280;51875;49.994;14.052;2023-03-18T06:36:51;98244.97;;;1.70;100.00
65276;BME280;51875;49.994;14.052;2023-03-18T06:38:07;98247.59;;;1.86;100.00
65276;BME280;51875;49.994;14.052;2023-03-18T06:39:24;98250.16;;;1.84;100.00
65276;BME280;51875;49.994;14.052;2023-03-18T06:40:40;98257.09;;;1.94;100.00
65276;BME280;51875;49.994;14.052;2023-03-18T06:41:56;98257.97;;;2.01;100.00
65276;BME280;51875;49.994;14.052;2023-03-18T06:43:12;98263.22;;;2.24;96.08
65276;BME280;51875;49.994;14.052;2023-03-18T06:44:28;98259.66;;;1.90;97.89
65276;BME280;51875;49.994;14.052;2023-03-18T06:45:44;98260.56;;;2.00;96.30
65276;BME280;51875;49.994;14.052;2023-03-18T06:47:00;98270.94;;;2.17;94.03
65276;BME280;51875;49.994;14.052;2023-03-18T06:48:16;98261.50;;;2.26;94.43
65276;BME280;51875;49.994;14.052;2023-03-18T06:49:33;98258.94;;;2.34;91.31
65276;BME280;51875;49.994;14.052;2023-03-18T06:50:51;98266.72;;;2.40;92.24
65276;BME280;51875;49.994;14.052;2023-03-18T06:52:06;98259.81;;;2.39;92.51
65276;BME280;51875;49.994;14.052;2023-03-18T06:53:22;98265.00;;;2.52;91.96